sensor_id;sensor_type;location;lat;lon;timestamp;pressure;altitude;pressure_sealevel;temperature;humidity
11198;BME280;5655;48.744;9.162;2024-01-25T00:01:54;97292.09;;;11.13;100.00
11198;BME280;5655;48.744;9.162;2024-01-25T00:04:19;97284.81;;;11.26;100.00
11198;BME280;5655;48.744;9.162;2024-01-25T00:06:45;97278.97;;;11.08;100.00
11198;BME280;5655;48.744;9.162;2024-01-25T00:09:10;97283.81;;;11.18;100.00
11198;BME280;5655;48.744;9.162;2024-01-25T00:11:35;97285.53;;;11.11;100.00
11198;BME280;5655;48.744;9.162;2024-01-25T00:14:01;97276.78;;;11.26;100.00
11198;BME280;5655;48.744;9.162;2024-01-25T00:16:27;97274.59;;;11.16;100.00
11198;BME280;5655;48.744;9.162;2024-01-25T00:18:52;97271.22;;;11.19;100.00
11198;BME280;5655;48.744;9.162;2024-01-25T00:21:18;97268.16;;;11.05;100.00
11198;BME280;5655;48.744;9.162;2024-01-25T00:23:43;97262.38;;;11.18;100.00
11198;BME280;5655;48.744;9.162;2024-01-25T00:26:08;97251.25;;;11.32;100.00
11198;BME280;5655;48.744;9.162;2024-01-25T00:28:34;97251.81;;;10.94;100.00
11198;BME280;5655;48.744;9.162;2024-01-25T00:30:59;97265.91;;;11.07;100.00
11198;BME280;5655;48.744;9.162;2024-01-25T00:33:24;97266.22;;;11.17;100.00
11198;BME280;5655;48.744;9.162;2024-01-25T00:35:50;97267.75;;;11.18;100.00
11198;BME280;5655;48.744;9.162;2024-01-25T00:38:16;97266.97;;;11.18;100.00
11198;BME280;5655;48.744;9.162;2024-01-25T00:40:41;97261.59;;;11.18;100.00
11198;BME280;5655;48.744;9.162;2024-01-25T00:43:07;97264.09;;;10.95;100.00
11198;BME280;5655;48.744;9.162;2024-01-25T00:45:33;97255.13;;;11.03;100.00
11198;BME280;5655;48.744;9.162;2024-01-25T00:47:58;97265.28;;;11.25;100.00
11198;BME280;5655;48.744;9.162;2024-01-25T00:50:24;97263.41;;;11.14;100.00
11198;BME280;5655;48.744;9.162;2024-01-25T00:52:51;97266.00;;;11.10;100.00
11198;BME280;5655;48.744;9.162;2024-01-25T00:55:17;97263.09;;;11.15;100.00
11198;BME280;5655;48.744;9.162;2024-01-25T00:57:42;97262.69;;;11.01;100.00
11198;BME280;5655;48.744;9.162;2024-01-25T01:00:08;97261.53;;;11.14;100.00
11198;BME280;5655;48.744;9.162;2024-01-25T01:02:44;97259.47;;;11.23;100.00
11198;BME280;5655;48.744;9.162;2024-01-25T01:05:13;97263.00;;;11.12;100.00
11198;BME280;5655;48.744;9.162;2024-01-25T01:07:39;97260.84;;;11.17;100.00
11198;BME280;5655;48.744;9.162;2024-01-25T01:10:08;97268.56;;;11.34;100.00
11198;BME280;5655;48.744;9.162;2024-01-25T01:12:34;97269.72;;;11.06;100.00
11198;BME280;5655;48.744;9.162;2024-01-25T01:15:00;97260.25;;;11.24;100.00
11198;BME280;5655;48.744;9.162;2024-01-25T01:17:25;97266.38;;;11.24;100.00
11198;BME280;5655;48.744;9.162;2024-01-25T01:19:51;97251.03;;;11.09;100.00
11198;BME280;5655;48.744;9.162;2024-01-25T01:22:16;97255.91;;;11.19;100.00
11198;BME280;5655;48.744;9.162;2024-01-25T01:24:41;97256.06;;;11.11;100.00
11198;BME280;5655;48.744;9.162;2024-01-25T01:27:07;97251.66;;;11.18;100.00
11198;BME280;5655;48.744;9.162;2024-01-25T01:29:32;97248.81;;;11.27;100.00
11198;BME280;5655;48.744;9.162;2024-01-25T01:31:58;97252.19;;;11.08;100.00
11198;BME280;5655;48.744;9.162;2024-01-25T01:34:23;97249.22;;;11.13;100.00
11198;BME280;5655;48.744;9.162;2024-01-25T01:36:48;97244.78;;;11.17;100.00
11198;BME280;5655;48.744;9.162;2024-01-25T01:39:14;97237.16;;;11.19;100.00
11198;BME280;5655;48.744;9.162;2024-01-25T01:41:39;97242.59;;;11.07;100.00
11198;BME280;5655;48.744;9.162;2024-01-25T01:44:04;97244.81;;;11.05;100.00
11198;BME280;5655;48.744;9.162;2024-01-25T01:46:34;97239.53;;;10.93;100.00
11198;BME280;5655;48.744;9.162;2024-01-25T01:49:02;97238.34;;;11.06;100.00
11198;BME280;5655;48.744;9.162;2024-01-25T01:51:28;97247.88;;;11.19;100.00
11198;BME280;5655;48.744;9.162;2024-01-25T01:53:55;97242.75;;;10.99;100.00
11198;BME280;5655;48.744;9.162;2024-01-25T01:56:21;97248.97;;;11.03;100.00
11198;BME280;5655;48.744;9.162;2024-01-25T01:58:48;97243.72;;;11.06;100.00
11198;BME280;5655;48.744;9.162;2024-01-25T02:01:13;97247.94;;;11.07;100.00
11198;BME280;5655;48.744;9.162;2024-01-25T02:03:39;97247.56;;;10.93;100.00
11198;BME280;5655;48.744;9.162;2024-01-25T02:06:06;97238.25;;;11.03;100.00
11198;BME280;5655;48.744;9.162;2024-01-25T02:08:31;97245.59;;;10.90;100.00
11198;BME280;5655;48.744;9.162;2024-01-25T02:10:57;97242.84;;;11.02;100.00
11198;BME280;5655;48.744;9.162;2024-01-25T02:13:22;97241.19;;;11.13;100.00
11198;BME280;5655;48.744;9.162;2024-01-25T02:15:47;97241.66;;;11.15;100.00
11198;BME280;5655;48.744;9.162;2024-01-25T02:18:13;97257.34;;;11.01;100.00
11198;BME280;5655;48.744;9.162;2024-01-25T02:20:38;97251.38;;;10.92;100.00
11198;BME280;5655;48.744;9.162;2024-01-25T02:23:04;97228.34;;;10.75;100.00
11198;BME280;5655;48.744;9.162;2024-01-25T02:25:29;97227.38;;;10.96;100.00
11198;BME280;5655;48.744;9.162;2024-01-25T02:27:54;97226.38;;;10.88;100.00
11198;BME280;5655;48.744;9.162;2024-01-25T02:30:20;97234.09;;;10.89;100.00
11198;BME280;5655;48.744;9.162;2024-01-25T02:32:45;97232.28;;;11.09;100.00
11198;BME280;5655;48.744;9.162;2024-01-25T02:35:10;97227.88;;;10.85;100.00
11198;BME280;5655;48.744;9.162;2024-01-25T02:37:35;97230.38;;;10.94;100.00
11198;BME280;5655;48.744;9.162;2024-01-25T02:40:01;97233.91;;;10.82;100.00
11198;BME280;5655;48.744;9.162;2024-01-25T02:42:26;97228.88;;;10.81;100.00
11198;BME280;5655;48.744;9.162;2024-01-25T02:44:51;97244.34;;;10.87;100.00
11198;BME280;5655;48.744;9.162;2024-01-25T02:47:17;97240.63;;;10.76;100.00
11198;BME280;5655;48.744;9.162;2024-01-25T02:49:42;97238.56;;;10.85;100.00
11198;BME280;5655;48.744;9.162;2024-01-25T02:52:08;97240.72;;;10.80;100.00
11198;BME280;5655;48.744;9.162;2024-01-25T02:54:36;97243.94;;;10.85;100.00
11198;BME280;5655;48.744;9.162;2024-01-25T02:57:02;97236.28;;;10.72;100.00
11198;BME280;5655;48.744;9.162;2024-01-25T02:59:27;97231.19;;;10.67;100.00
11198;BME280;5655;48.744;9.162;2024-01-25T03:01:54;97228.34;;;10.75;100.00
11198;BME280;5655;48.744;9.162;2024-01-25T03:04:19;97251.31;;;11.04;100.00
11198;BME280;5655;48.744;9.162;2024-01-25T03:06:45;97240.22;;;10.90;100.00
11198;BME280;5655;48.744;9.162;2024-01-25T03:09:11;97232.25;;;10.78;100.00
11198;BME280;5655;48.744;9.162;2024-01-25T03:11:36;97231.75;;;10.88;100.00
11198;BME280;5655;48.744;9.162;2024-01-25T03:14:01;97244.81;;;11.05;100.00
11198;BME280;5655;48.744;9.162;2024-01-25T03:16:27;97247.63;;;10.81;100.00
11198;BME280;5655;48.744;9.162;2024-01-25T03:18:52;97248.69;;;10.92;100.00
11198;BME280;5655;48.744;9.162;2024-01-25T03:21:17;97250.94;;;10.62;100.00
11198;BME280;5655;48.744;9.162;2024-01-25T03:23:43;97256.94;;;10.71;100.00
11198;BME280;5655;48.744;9.162;2024-01-25T03:26:08;97256.78;;;10.80;100.00
11198;BME280;5655;48.744;9.162;2024-01-25T03:28:36;97262.13;;;10.80;100.00
11198;BME280;5655;48.744;9.162;2024-01-25T03:31:02;97259.69;;;10.75;100.00
11198;BME280;5655;48.744;9.162;2024-01-25T03:33:28;97257.31;;;10.85;100.00
11198;BME280;5655;48.744;9.162;2024-01-25T03:35:54;97269.75;;;10.78;100.00
11198;BME280;5655;48.744;9.162;2024-01-25T03:38:19;97272.72;;;10.61;100.00
11198;BME280;5655;48.744;9.162;2024-01-25T03:40:45;97262.78;;;10.89;100.00
11198;BME280;5655;48.744;9.162;2024-01-25T03:43:10;97284.69;;;10.79;100.00
11198;BME280;5655;48.744;9.162;2024-01-25T03:45:35;97282.31;;;11.05;100.00
11198;BME280;5655;48.744;9.162;2024-01-25T03:48:01;97289.84;;;10.72;100.00
11198;BME280;5655;48.744;9.162;2024-01-25T03:50:27;97288.72;;;10.73;100.00
11198;BME280;5655;48.744;9.162;2024-01-25T03:52:52;97295.75;;;10.77;100.00
11198;BME280;5655;48.744;9.162;2024-01-25T03:55:18;97295.19;;;10.72;100.00
11198;BME280;5655;48.744;9.162;2024-01-25T03:57:44;97300.13;;;10.70;100.00
11198;BME280;5655;48.744;9.162;2024-01-25T04:00:10;97304.28;;;10.83;100.00
11198;BME280;5655;48.744;9.162;2024-01-25T04:02:36;97309.38;;;11.00;100.00
11198;BME280;5655;48.744;9.162;2024-01-25T04:05:02;97319.00;;;10.89;100.00
11198;BME280;5655;48.744;9.162;2024-01-25T04:07:27;97311.88;;;10.53;100.00
11198;BME280;5655;48.744;9.162;2024-01-25T04:09:53;97326.31;;;10.76;100.00
11198;BME280;5655;48.744;9.162;2024-01-25T04:12:18;97320.59;;;10.90;100.00
11198;BME280;5655;48.744;9.162;2024-01-25T04:14:43;97320.25;;;10.52;100.00
11198;BME280;5655;48.744;9.162;2024-01-25T04:17:09;97310.63;;;10.63;100.00
11198;BME280;5655;48.744;9.162;2024-01-25T04:19:35;97318.19;;;10.73;100.00
11198;BME280;5655;48.744;9.162;2024-01-25T04:22:01;97325.34;;;10.69;100.00
11198;BME280;5655;48.744;9.162;2024-01-25T04:24:26;97314.22;;;10.55;100.00
11198;BME280;5655;48.744;9.162;2024-01-25T04:26:51;97319.16;;;10.40;100.00
11198;BME280;5655;48.744;9.162;2024-01-25T04:29:17;97300.19;;;10.45;100.00
11198;BME280;5655;48.744;9.162;2024-01-25T04:31:43;97311.38;;;10.35;100.00
11198;BME280;5655;48.744;9.162;2024-01-25T04:34:09;97312.50;;;10.22;100.00
11198;BME280;5655;48.744;9.162;2024-01-25T04:36:34;97305.78;;;10.28;100.00
11198;BME280;5655;48.744;9.162;2024-01-25T04:39:00;97316.41;;;10.25;100.00
11198;BME280;5655;48.744;9.162;2024-01-25T04:41:25;97319.50;;;10.39;100.00
11198;BME280;5655;48.744;9.162;2024-01-25T04:43:50;97317.50;;;10.24;100.00
11198;BME280;5655;48.744;9.162;2024-01-25T04:46:15;97316.06;;;10.26;100.00
11198;BME280;5655;48.744;9.162;2024-01-25T04:48:41;97315.59;;;10.00;100.00
11198;BME280;5655;48.744;9.162;2024-01-25T04:51:06;97318.28;;;10.00;100.00
11198;BME280;5655;48.744;9.162;2024-01-25T04:53:32;97309.84;;;10.22;100.00
11198;BME280;5655;48.744;9.162;2024-01-25T04:55:57;97307.81;;;9.95;100.00
11198;BME280;5655;48.744;9.162;2024-01-25T04:58:25;97318.97;;;10.21;100.00
11198;BME280;5655;48.744;9.162;2024-01-25T05:00:50;97328.19;;;10.12;100.00
11198;BME280;5655;48.744;9.162;2024-01-25T05:03:17;97338.59;;;10.25;100.00
11198;BME280;5655;48.744;9.162;2024-01-25T05:05:43;97337.44;;;10.02;100.00
11198;BME280;5655;48.744;9.162;2024-01-25T05:08:08;97331.41;;;9.93;100.00
11198;BME280;5655;48.744;9.162;2024-01-25T05:10:33;97343.34;;;9.95;100.00
11198;BME280;5655;48.744;9.162;2024-01-25T05:12:59;97344.47;;;9.94;100.00
11198;BME280;5655;48.744;9.162;2024-01-25T05:15:24;97343.91;;;10.01;100.00
11198;BME280;5655;48.744;9.162;2024-01-25T05:17:49;97333.78;;;9.94;100.00
11198;BME280;5655;48.744;9.162;2024-01-25T05:20:15;97339.88;;;9.71;100.00
11198;BME280;5655;48.744;9.162;2024-01-25T05:22:42;97334.97;;;9.73;100.00
11198;BME280;5655;48.744;9.162;2024-01-25T05:25:08;97338.88;;;9.75;100.00
11198;BME280;5655;48.744;9.162;2024-01-25T05:27:33;97343.00;;;9.73;100.00
11198;BME280;5655;48.744;9.162;2024-01-25T05:29:59;97345.69;;;9.85;100.00
11198;BME280;5655;48.744;9.162;2024-01-25T05:32:24;97336.53;;;9.62;100.00
11198;BME280;5655;48.744;9.162;2024-01-25T05:34:50;97346.06;;;9.50;100.00
11198;BME280;5655;48.744;9.162;2024-01-25T05:37:15;97350.53;;;9.58;100.00
11198;BME280;5655;48.744;9.162;2024-01-25T05:39:40;97360.50;;;9.70;100.00
11198;BME280;5655;48.744;9.162;2024-01-25T05:42:06;97356.75;;;9.50;100.00
11198;BME280;5655;48.744;9.162;2024-01-25T05:44:31;97359.47;;;9.63;100.00
11198;BME280;5655;48.744;9.162;2024-01-25T05:46:56;97367.56;;;9.54;100.00
11198;BME280;5655;48.744;9.162;2024-01-25T05:49:22;97366.25;;;9.60;100.00
11198;BME280;5655;48.744;9.162;2024-01-25T05:51:47;97367.66;;;9.45;100.00
11198;BME280;5655;48.744;9.162;2024-01-25T05:54:12;97362.09;;;9.50;100.00
11198;BME280;5655;48.744;9.162;2024-01-25T05:56:38;97349.63;;;9.42;100.00
11198;BME280;5655;48.744;9.162;2024-01-25T05:59:03;97366.47;;;9.55;100.00
11198;BME280;5655;48.744;9.162;2024-01-25T06:01:28;97364.34;;;9.48;100.00
11198;BME280;5655;48.744;9.162;2024-01-25T06:03:54;97362.22;;;9.54;100.00
11198;BME280;5655;48.744;9.162;2024-01-25T06:06:19;97359.50;;;9.30;100.00
11198;BME280;5655;48.744;9.162;2024-01-25T06:08:44;97356.53;;;9.43;100.00
11198;BME280;5655;48.744;9.162;2024-01-25T06:11:10;97348.03;;;9.29;100.00
11198;BME280;5655;48.744;9.162;2024-01-25T06:13:36;97352.34;;;9.22;100.00
11198;BME280;5655;48.744;9.162;2024-01-25T06:16:01;97346.94;;;9.30;100.00
11198;BME280;5655;48.744;9.162;2024-01-25T06:18:27;97347.88;;;9.14;100.00
11198;BME280;5655;48.744;9.162;2024-01-25T06:20:52;97353.34;;;9.17;100.00
11198;BME280;5655;48.744;9.162;2024-01-25T06:23:17;97355.53;;;9.15;100.00
11198;BME280;5655;48.744;9.162;2024-01-25T06:25:43;97343.09;;;9.19;100.00
11198;BME280;5655;48.744;9.162;2024-01-25T06:28:08;97350.88;;;9.12;100.00
11198;BME280;5655;48.744;9.162;2024-01-25T06:30:34;97353.03;;;9.19;100.00
11198;BME280;5655;48.744;9.162;2024-01-25T06:32:59;97349.72;;;9.01;100.00
11198;BME280;5655;48.744;9.162;2024-01-25T06:35:24;97345.28;;;9.05;100.00
11198;BME280;5655;48.744;9.162;2024-01-25T06:37:50;97349.06;;;9.04;100.00
11198;BME280;5655;48.744;9.162;2024-01-25T06:40:15;97355.41;;;9.11;100.00
11198;BME280;5655;48.744;9.162;2024-01-25T06:42:41;97338.56;;;8.99;100.00
11198;BME280;5655;48.744;9.162;2024-01-25T06:45:07;97344.78;;;8.91;100.00
11198;BME280;5655;48.744;9.162;2024-01-25T06:47:33;97353.25;;;8.93;100.00
11198;BME280;5655;48.744;9.162;2024-01-25T06:49:58;97351.69;;;8.92;100.00
11198;BME280;5655;48.744;9.162;2024-01-25T06:52:24;97337.22;;;8.93;100.00
11198;BME280;5655;48.744;9.162;2024-01-25T06:54:49;97346.97;;;8.89;100.00
11198;BME280;5655;48.744;9.162;2024-01-25T06:57:14;97364.41;;;9.07;100.00
11198;BME280;5655;48.744;9.162;2024-01-25T06:59:40;97378.44;;;9.04;100.00
11198;BME280;5655;48.744;9.162;2024-01-25T07:02:05;97374.25;;;8.94;100.00
11198;BME280;5655;48.744;9.162;2024-01-25T07:04:31;97394.00;;;9.02;100.00
11198;BME280;5655;48.744;9.162;2024-01-25T07:06:56;97405.06;;;9.13;100.00
11198;BME280;5655;48.744;9.162;2024-01-25T07:09:21;97408.41;;;9.09;100.00
11198;BME280;5655;48.744;9.162;2024-01-25T07:11:47;97399.16;;;8.86;100.00
11198;BME280;5655;48.744;9.162;2024-01-25T07:14:12;97397.44;;;8.82;100.00
11198;BME280;5655;48.744;9.162;2024-01-25T07:16:38;97390.34;;;8.86;100.00
11198;BME280;5655;48.744;9.162;2024-01-25T07:19:03;97403.09;;;8.80;100.00
11198;BME280;5655;48.744;9.162;2024-01-25T07:21:28;97403.75;;;8.98;100.00
11198;BME280;5655;48.744;9.162;2024-01-25T07:23:58;97405.81;;;9.01;100.00
11198;BME280;5655;48.744;9.162;2024-01-25T07:26:24;97387.63;;;8.74;100.00
11198;BME280;5655;48.744;9.162;2024-01-25T07:28:49;97393.88;;;8.78;100.00
11198;BME280;5655;48.744;9.162;2024-01-25T07:31:15;97394.78;;;8.82;100.00
11198;BME280;5655;48.744;9.162;2024-01-25T07:33:40;97394.28;;;8.88;100.00
11198;BME280;5655;48.744;9.162;2024-01-25T07:36:05;97400.00;;;8.99;100.00
11198;BME280;5655;48.744;9.162;2024-01-25T07:38:31;97404.03;;;9.05;100.00
11198;BME280;5655;48.744;9.162;2024-01-25T07:40:56;97409.56;;;9.21;100.00
11198;BME280;5655;48.744;9.162;2024-01-25T07:43:21;97414.31;;;9.36;100.00
11198;BME280;5655;48.744;9.162;2024-01-25T07:45:47;97408.84;;;9.11;100.00
11198;BME280;5655;48.744;9.162;2024-01-25T07:48:12;97429.66;;;9.39;100.00
11198;BME280;5655;48.744;9.162;2024-01-25T07:50:37;97424.41;;;9.30;100.00
11198;BME280;5655;48.744;9.162;2024-01-25T07:53:03;97426.84;;;9.56;100.00
11198;BME280;5655;48.744;9.162;2024-01-25T07:55:28;97422.97;;;9.66;100.00
11198;BME280;5655;48.744;9.162;2024-01-25T07:57:55;97433.56;;;9.41;100.00
11198;BME280;5655;48.744;9.162;2024-01-25T08:00:20;97419.41;;;9.62;100.00
11198;BME280;5655;48.744;9.162;2024-01-25T08:02:46;97417.38;;;9.58;100.00
11198;BME280;5655;48.744;9.162;2024-01-25T08:05:11;97405.72;;;9.09;100.00
11198;BME280;5655;48.744;9.162;2024-01-25T08:07:36;97394.22;;;8.97;100.00
11198;BME280;5655;48.744;9.162;2024-01-25T08:10:03;97400.78;;;8.99;100.00
11198;BME280;5655;48.744;9.162;2024-01-25T08:12:29;97394.78;;;8.82;100.00
11198;BME280;5655;48.744;9.162;2024-01-25T08:14:55;97403.13;;;9.01;100.00
11198;BME280;5655;48.744;9.162;2024-01-25T08:17:20;97405.59;;;9.27;100.00
11198;BME280;5655;48.744;9.162;2024-01-25T08:19:45;97406.88;;;9.21;100.00
11198;BME280;5655;48.744;9.162;2024-01-25T08:22:11;97405.69;;;9.30;100.00
11198;BME280;5655;48.744;9.162;2024-01-25T08:24:38;97406.66;;;9.58;100.00
11198;BME280;5655;48.744;9.162;2024-01-25T08:27:04;97409.69;;;9.57;100.00
11198;BME280;5655;48.744;9.162;2024-01-25T08:29:30;97411.00;;;9.51;100.00
11198;BME280;5655;48.744;9.162;2024-01-25T08:31:55;97409.25;;;9.67;100.00
11198;BME280;5655;48.744;9.162;2024-01-25T08:34:20;97422.41;;;9.72;100.00
11198;BME280;5655;48.744;9.162;2024-01-25T08:36:46;97418.25;;;9.63;100.00
11198;BME280;5655;48.744;9.162;2024-01-25T08:39:12;97419.84;;;9.64;100.00
11198;BME280;5655;48.744;9.162;2024-01-25T08:41:37;97424.88;;;9.77;100.00
11198;BME280;5655;48.744;9.162;2024-01-25T08:44:03;97432.94;;;9.44;100.00
11198;BME280;5655;48.744;9.162;2024-01-25T08:46:28;97428.91;;;9.50;100.00
11198;BME280;5655;48.744;9.162;2024-01-25T08:48:53;97451.16;;;9.42;100.00
11198;BME280;5655;48.744;9.162;2024-01-25T08:51:19;97453.97;;;9.46;100.00
11198;BME280;5655;48.744;9.162;2024-01-25T08:53:44;97448.06;;;9.40;100.00
11198;BME280;5655;48.744;9.162;2024-01-25T08:56:09;97438.00;;;9.37;100.00
11198;BME280;5655;48.744;9.162;2024-01-25T08:58:35;97449.59;;;9.41;100.00
11198;BME280;5655;48.744;9.162;2024-01-25T09:01:00;97454.78;;;9.58;100.00
11198;BME280;5655;48.744;9.162;2024-01-25T09:03:25;97453.00;;;9.63;100.00
11198;BME280;5655;48.744;9.162;2024-01-25T09:05:51;97443.81;;;9.39;100.00
11198;BME280;5655;48.744;9.162;2024-01-25T09:08:17;97456.00;;;9.49;100.00
11198;BME280;5655;48.744;9.162;2024-01-25T09:10:42;97452.19;;;9.71;100.00
11198;BME280;5655;48.744;9.162;2024-01-25T09:13:08;97455.38;;;9.64;100.00
11198;BME280;5655;48.744;9.162;2024-01-25T09:15:33;97459.44;;;9.82;100.00
11198;BME280;5655;48.744;9.162;2024-01-25T09:17:59;97467.44;;;9.70;100.00
11198;BME280;5655;48.744;9.162;2024-01-25T09:20:24;97469.78;;;10.17;100.00
11198;BME280;5655;48.744;9.162;2024-01-25T09:22:50;97473.81;;;9.90;100.00
11198;BME280;5655;48.744;9.162;2024-01-25T09:25:16;97478.38;;;9.89;100.00
11198;BME280;5655;48.744;9.162;2024-01-25T09:27:41;97483.97;;;10.29;100.00
11198;BME280;5655;48.744;9.162;2024-01-25T09:30:07;97493.78;;;10.25;100.00
11198;BME280;5655;48.744;9.162;2024-01-25T09:32:33;97485.75;;;10.50;100.00
11198;BME280;5655;48.744;9.162;2024-01-25T09:34:58;97486.53;;;10.62;100.00
11198;BME280;5655;48.744;9.162;2024-01-25T09:37:24;97483.75;;;10.46;100.00
11198;BME280;5655;48.744;9.162;2024-01-25T09:39:52;97492.69;;;10.87;100.00
11198;BME280;5655;48.744;9.162;2024-01-25T09:42:18;97492.22;;;10.85;100.00
11198;BME280;5655;48.744;9.162;2024-01-25T09:44:44;97489.09;;;10.71;100.00
11198;BME280;5655;48.744;9.162;2024-01-25T09:47:10;97490.19;;;11.06;100.00
11198;BME280;5655;48.744;9.162;2024-01-25T09:49:36;97498.22;;;11.06;100.00
11198;BME280;5655;48.744;9.162;2024-01-25T09:52:02;97497.00;;;11.44;100.00
11198;BME280;5655;48.744;9.162;2024-01-25T09:54:31;97504.28;;;10.91;100.00
11198;BME280;5655;48.744;9.162;2024-01-25T09:56:59;97499.03;;;10.95;100.00
11198;BME280;5655;48.744;9.162;2024-01-25T09:59:25;97503.03;;;11.01;100.00
11198;BME280;5655;48.744;9.162;2024-01-25T10:01:51;97506.13;;;11.15;100.00
11198;BME280;5655;48.744;9.162;2024-01-25T10:04:16;97507.13;;;11.22;100.00
11198;BME280;5655;48.744;9.162;2024-01-25T10:06:44;97508.47;;;11.28;100.00
11198;BME280;5655;48.744;9.162;2024-01-25T10:09:09;97510.41;;;11.44;100.00
11198;BME280;5655;48.744;9.162;2024-01-25T10:11:35;97515.72;;;11.68;100.00
11198;BME280;5655;48.744;9.162;2024-01-25T10:14:01;97506.09;;;11.79;100.00
11198;BME280;5655;48.744;9.162;2024-01-25T10:16:26;97502.38;;;11.83;100.00
11198;BME280;5655;48.744;9.162;2024-01-25T10:18:52;97504.75;;;12.01;100.00
11198;BME280;5655;48.744;9.162;2024-01-25T10:21:18;97497.41;;;12.13;100.00
11198;BME280;5655;48.744;9.162;2024-01-25T10:23:44;97497.22;;;11.91;100.00
11198;BME280;5655;48.744;9.162;2024-01-25T10:26:13;97501.03;;;11.90;100.00
11198;BME280;5655;48.744;9.162;2024-01-25T10:28:39;97488.34;;;11.74;100.00
11198;BME280;5655;48.744;9.162;2024-01-25T10:31:04;97492.59;;;11.91;100.00
11198;BME280;5655;48.744;9.162;2024-01-25T10:33:31;97489.31;;;11.70;100.00
11198;BME280;5655;48.744;9.162;2024-01-25T10:35:57;97487.94;;;11.88;100.00
11198;BME280;5655;48.744;9.162;2024-01-25T10:38:30;97489.53;;;12.05;100.00
11198;BME280;5655;48.744;9.162;2024-01-25T10:41:00;97484.53;;;11.75;100.00
11198;BME280;5655;48.744;9.162;2024-01-25T10:43:26;97494.38;;;11.99;100.00
11198;BME280;5655;48.744;9.162;2024-01-25T10:45:52;97480.59;;;11.85;100.00
11198;BME280;5655;48.744;9.162;2024-01-25T10:48:21;97479.34;;;11.82;100.00
11198;BME280;5655;48.744;9.162;2024-01-25T10:50:48;97478.38;;;12.34;100.00
11198;BME280;5655;48.744;9.162;2024-01-25T10:53:15;97460.44;;;12.54;100.00
11198;BME280;5655;48.744;9.162;2024-01-25T10:55:41;97465.31;;;12.64;100.00
11198;BME280;5655;48.744;9.162;2024-01-25T10:58:07;97463.84;;;13.01;100.00
11198;BME280;5655;48.744;9.162;2024-01-25T11:00:35;97464.69;;;13.40;100.00
11198;BME280;5655;48.744;9.162;2024-01-25T11:03:00;97457.75;;;13.39;100.00
11198;BME280;5655;48.744;9.162;2024-01-25T11:05:26;97463.47;;;13.57;100.00
11198;BME280;5655;48.744;9.162;2024-01-25T11:07:52;97447.56;;;13.90;100.00
11198;BME280;5655;48.744;9.162;2024-01-25T11:10:19;97450.16;;;13.64;100.00
11198;BME280;5655;48.744;9.162;2024-01-25T11:12:51;97444.81;;;13.87;100.00
11198;BME280;5655;48.744;9.162;2024-01-25T11:15:29;97444.34;;;14.04;100.00
11198;BME280;5655;48.744;9.162;2024-01-25T11:17:55;97438.69;;;14.32;100.00
11198;BME280;5655;48.744;9.162;2024-01-25T11:20:25;97428.63;;;14.51;100.00
11198;BME280;5655;48.744;9.162;2024-01-25T11:25:21;97425.63;;;14.83;100.00
11198;BME280;5655;48.744;9.162;2024-01-25T11:27:50;97423.28;;;14.81;100.00
11198;BME280;5655;48.744;9.162;2024-01-25T11:30:18;97420.06;;;14.72;100.00
11198;BME280;5655;48.744;9.162;2024-01-25T11:32:48;97418.59;;;15.05;100.00
11198;BME280;5655;48.744;9.162;2024-01-25T11:35:14;97415.94;;;15.38;100.00
11198;BME280;5655;48.744;9.162;2024-01-25T11:37:46;97406.03;;;15.16;100.00
11198;BME280;5655;48.744;9.162;2024-01-25T11:40:13;97401.28;;;15.06;100.00
11198;BME280;5655;48.744;9.162;2024-01-25T11:42:40;97398.41;;;15.21;100.00
11198;BME280;5655;48.744;9.162;2024-01-25T11:45:08;97399.81;;;15.12;100.00
11198;BME280;5655;48.744;9.162;2024-01-25T11:47:35;97403.50;;;15.30;100.00
11198;BME280;5655;48.744;9.162;2024-01-25T11:50:00;97402.09;;;15.73;100.00
11198;BME280;5655;48.744;9.162;2024-01-25T11:52:26;97397.06;;;16.15;100.00
11198;BME280;5655;48.744;9.162;2024-01-25T11:54:51;97392.88;;;16.18;100.00
11198;BME280;5655;48.744;9.162;2024-01-25T11:57:17;97406.03;;;15.49;100.00
11198;BME280;5655;48.744;9.162;2024-01-25T11:59:43;97400.66;;;15.19;100.00
11198;BME280;5655;48.744;9.162;2024-01-25T12:02:14;97395.63;;;15.14;100.00
11198;BME280;5655;48.744;9.162;2024-01-25T12:04:40;97401.63;;;14.74;100.00
11198;BME280;5655;48.744;9.162;2024-01-25T12:07:05;97400.63;;;14.11;100.00
11198;BME280;5655;48.744;9.162;2024-01-25T12:09:31;97401.34;;;14.53;100.00
11198;BME280;5655;48.744;9.162;2024-01-25T12:11:56;97408.59;;;15.05;100.00
11198;BME280;5655;48.744;9.162;2024-01-25T12:14:24;97390.28;;;15.51;100.00
11198;BME280;5655;48.744;9.162;2024-01-25T12:16:49;97392.72;;;15.63;100.00
11198;BME280;5655;48.744;9.162;2024-01-25T12:19:15;97380.13;;;15.41;100.00
11198;BME280;5655;48.744;9.162;2024-01-25T12:21:44;97379.81;;;15.83;100.00
11198;BME280;5655;48.744;9.162;2024-01-25T12:24:09;97390.00;;;16.00;100.00
11198;BME280;5655;48.744;9.162;2024-01-25T12:26:35;97381.19;;;16.07;100.00
11198;BME280;5655;48.744;9.162;2024-01-25T12:29:01;97384.56;;;15.97;100.00
11198;BME280;5655;48.744;9.162;2024-01-25T12:31:26;97378.88;;;15.65;100.00
11198;BME280;5655;48.744;9.162;2024-01-25T12:33:51;97369.19;;;15.60;100.00
11198;BME280;5655;48.744;9.162;2024-01-25T12:36:16;97355.16;;;16.35;100.00
11198;BME280;5655;48.744;9.162;2024-01-25T12:38:42;97353.38;;;16.03;100.00
11198;BME280;5655;48.744;9.162;2024-01-25T12:41:07;97356.19;;;16.17;100.00
11198;BME280;5655;48.744;9.162;2024-01-25T12:43:32;97361.53;;;16.61;100.00
11198;BME280;5655;48.744;9.162;2024-01-25T12:45:58;97358.09;;;16.67;100.00
11198;BME280;5655;48.744;9.162;2024-01-25T12:48:29;97360.38;;;16.62;100.00
11198;BME280;5655;48.744;9.162;2024-01-25T12:50:57;97354.63;;;16.70;100.00
11198;BME280;5655;48.744;9.162;2024-01-25T12:53:23;97346.53;;;16.74;100.00
11198;BME280;5655;48.744;9.162;2024-01-25T12:55:49;97343.22;;;16.40;100.00
11198;BME280;5655;48.744;9.162;2024-01-25T12:58:14;97337.09;;;16.50;100.00
11198;BME280;5655;48.744;9.162;2024-01-25T13:00:39;97333.97;;;16.41;100.00